Time;durP1;ratioP1;P1;durP2;ratioP2;P2;SDS_P1;SDS_P2;PMS_P1;PMS_P2;Temp;Humidity;BMP_temperature;BMP_pressure;BME280_temperature;BME280_humidity;BME280_pressure;Samples;Min_cycle;Max_cycle;Signal;HPM_P1;HPM_P2
2023/02/01 00:01:56;;;;;;;17.42;10.18;;;7.10;96.70;;;;;;4981684;28;20489;-77
2023/02/01 00:04:24;;;;;;;17.17;10.15;;;7.20;96.70;;;;;;4984936;28;20542;-78
2023/02/01 00:06:52;;;;;;;18.27;11.00;;;7.30;96.70;;;;;;4968043;28;20416;-76
2023/02/01 00:09:19;;;;;;;19.95;12.40;;;7.30;96.70;;;;;;4984073;28;20046;-76
2023/02/01 00:11:47;;;;;;;19.17;10.77;;;7.30;96.70;;;;;;4985879;28;20038;-77
2023/02/01 00:14:17;;;;;;;17.55;11.00;;;7.30;96.70;;;;;;4985889;28;20104;-71
2023/02/01 00:16:46;;;;;;;17.63;10.70;;;7.30;96.70;;;;;;4966289;28;20709;-77
2023/02/01 00:19:15;;;;;;;16.15;9.82;;;7.30;96.70;;;;;;4977622;28;20039;-77
2023/02/01 00:21:44;;;;;;;15.20;9.50;;;7.30;96.70;;;;;;4985593;28;20038;-77
2023/02/01 00:24:13;;;;;;;18.08;9.88;;;7.20;96.70;;;;;;4984211;28;20137;-77
2023/02/01 00:26:42;;;;;;;15.90;9.25;;;7.30;96.70;;;;;;4983268;28;20539;-77
2023/02/01 00:29:12;;;;;;;14.07;8.82;;;7.20;96.70;;;;;;4981930;28;20089;-77
2023/02/01 00:31:41;;;;;;;15.52;9.43;;;7.20;96.70;;;;;;4980299;28;20511;-77
2023/02/01 00:34:13;;;;;;;16.85;9.35;;;7.20;96.70;;;;;;4984479;28;20065;-76
2023/02/01 00:36:41;;;;;;;17.40;9.82;;;7.20;96.70;;;;;;4984592;28;20145;-75
2023/02/01 00:39:10;;;;;;;12.63;8.43;;;7.20;96.70;;;;;;4985555;28;20042;-71
2023/02/01 00:41:38;;;;;;;16.25;8.63;;;7.10;96.70;;;;;;4981433;28;20057;-71
2023/02/01 00:44:06;;;;;;;13.07;8.65;;;6.90;96.70;;;;;;4977494;28;20125;-71
2023/02/01 00:46:34;;;;;;;11.65;8.20;;;6.80;96.70;;;;;;4983075;28;20097;-70
2023/02/01 00:49:02;;;;;;;12.30;7.55;;;6.90;96.70;;;;;;4983836;28;20500;-70
2023/02/01 00:51:31;;;;;;;13.73;8.93;;;6.90;96.70;;;;;;4980946;28;20048;-71
2023/02/01 00:53:59;;;;;;;16.63;9.57;;;6.90;96.70;;;;;;4962079;28;20141;-70
2023/02/01 00:56:27;;;;;;;15.57;9.23;;;6.90;96.70;;;;;;4978488;28;20684;-74
2023/02/01 00:58:55;;;;;;;10.23;7.45;;;6.80;96.70;;;;;;4983736;28;20052;-76
2023/02/01 01:01:26;;;;;;;12.63;8.45;;;6.90;96.70;;;;;;4979312;28;20099;-76
2023/02/01 01:03:57;;;;;;;12.77;8.68;;;6.90;96.70;;;;;;4985496;28;20073;-76
2023/02/01 01:06:27;;;;;;;12.85;7.80;;;6.90;96.70;;;;;;4983863;28;20061;-77
2023/02/01 01:09:00;;;;;;;14.15;7.72;;;6.90;96.70;;;;;;4984366;28;20077;-77
2023/02/01 01:11:30;;;;;;;13.60;7.75;;;6.90;96.70;;;;;;4985000;28;20049;-77
2023/02/01 01:13:59;;;;;;;12.85;7.63;;;6.80;96.70;;;;;;4982705;28;20037;-77
2023/02/01 01:16:29;;;;;;;11.60;7.35;;;6.80;96.70;;;;;;4985460;28;20050;-72
2023/02/01 01:18:58;;;;;;;12.82;7.78;;;6.80;96.70;;;;;;4983476;28;20124;-72
2023/02/01 01:21:26;;;;;;;13.80;6.97;;;6.70;96.70;;;;;;4982864;28;20050;-72
2023/02/01 01:23:56;;;;;;;12.45;7.43;;;6.80;96.70;;;;;;4976369;28;20069;-72
2023/02/01 01:26:26;;;;;;;10.63;7.13;;;6.70;96.70;;;;;;4983205;28;20692;-72
2023/02/01 01:28:56;;;;;;;12.98;7.05;;;6.80;96.70;;;;;;4983343;28;20381;-76
2023/02/01 01:31:24;;;;;;;10.85;6.72;;;6.80;96.70;;;;;;4984981;28;20046;-77
2023/02/01 01:33:54;;;;;;;11.55;6.72;;;6.80;96.70;;;;;;4987884;28;20050;-77
2023/02/01 01:36:23;;;;;;;11.98;6.95;;;6.70;96.70;;;;;;4983262;28;20097;-77
2023/02/01 01:38:52;;;;;;;10.52;6.22;;;6.70;96.70;;;;;;4983766;28;20034;-70
2023/02/01 01:41:24;;;;;;;11.43;6.57;;;6.70;96.70;;;;;;4982158;28;20055;-71
2023/02/01 01:43:57;;;;;;;11.45;6.22;;;6.70;96.70;;;;;;4976752;28;20058;-70
2023/02/01 01:46:29;;;;;;;14.15;7.53;;;6.80;96.70;;;;;;4983056;28;20069;-71
2023/02/01 01:49:03;;;;;;;13.00;7.82;;;6.90;96.70;;;;;;4982935;28;20145;-76
2023/02/01 01:51:35;;;;;;;12.50;7.25;;;6.80;96.70;;;;;;4982668;28;20145;-76
2023/02/01 01:54:06;;;;;;;10.65;7.28;;;6.70;96.70;;;;;;4982612;28;20061;-76
2023/02/01 01:56:36;;;;;;;11.73;7.22;;;6.70;96.70;;;;;;4982827;28;20047;-76
2023/02/01 01:59:06;;;;;;;10.63;7.32;;;6.70;96.70;;;;;;4982691;28;20042;-74
2023/02/01 02:01:35;;;;;;;11.90;6.40;;;6.70;96.70;;;;;;4967908;28;20504;-76
2023/02/01 02:04:04;;;;;;;10.98;7.35;;;6.80;96.70;;;;;;4965588;28;20069;-76
2023/02/01 02:06:45;;;;;;;12.68;7.60;;;6.90;96.70;;;;;;4984683;28;20058;-76
2023/02/01 02:09:13;;;;;;;12.18;6.60;;;6.60;96.70;;;;;;4982533;28;20053;-76
2023/02/01 02:11:43;;;;;;;11.90;6.85;;;6.50;96.70;;;;;;4962923;28;20046;-74
2023/02/01 02:14:14;;;;;;;9.48;6.22;;;6.30;96.70;;;;;;4979967;28;20049;-76
2023/02/01 02:16:55;;;;;;;10.00;6.32;;;6.30;96.70;;;;;;4981327;28;20052;-75
2023/02/01 02:19:47;;;;;;;9.95;6.00;;;6.40;96.70;;;;;;4976270;28;21487;-76
2023/02/01 02:22:46;;;;;;;10.15;6.25;;;6.50;96.70;;;;;;4974687;28;20050;-75
2023/02/01 02:25:47;;;;;;;10.70;6.38;;;6.60;96.70;;;;;;4975555;28;20069;-76
2023/02/01 02:28:36;;;;;;;10.45;5.85;;;6.60;96.70;;;;;;4978562;28;20519;-77
2023/02/01 02:31:39;;;;;;;12.07;6.45;;;6.70;96.70;;;;;;4981044;28;20054;-71
2023/02/01 02:34:18;;;;;;;12.07;5.90;;;6.70;96.70;;;;;;4978684;28;20050;-71
2023/02/01 02:37:01;;;;;;;13.07;6.72;;;6.70;96.70;;;;;;4981328;28;20046;-71
2023/02/01 02:39:39;;;;;;;9.25;6.25;;;6.70;96.70;;;;;;4977525;28;20050;-71
2023/02/01 02:48:02;;;;;;;10.70;5.78;;;6.70;96.70;;;;;;4983780;28;20057;-72
2023/02/01 03:04:44;;;;;;;10.80;7.40;;;6.50;96.70;;;;;;4986070;28;20109;-72
2023/02/01 03:07:35;;;;;;;10.48;6.40;;;6.50;96.70;;;;;;4987112;28;20051;-71
2023/02/01 03:10:07;;;;;;;10.77;7.03;;;6.40;96.70;;;;;;4984757;28;20049;-72
2023/02/01 03:12:57;;;;;;;11.73;6.57;;;6.40;96.70;;;;;;4984773;28;20680;-73
2023/02/01 03:15:34;;;;;;;14.52;6.65;;;6.50;96.70;;;;;;4983698;28;20078;-72
2023/02/01 03:18:11;;;;;;;10.52;6.50;;;6.60;96.70;;;;;;4985311;28;20389;-72
2023/02/01 03:20:43;;;;;;;10.15;6.18;;;6.60;96.70;;;;;;4968952;28;20533;-72
2023/02/01 03:23:15;;;;;;;12.13;6.55;;;6.60;96.70;;;;;;4967497;28;20507;-72
2023/02/01 03:25:47;;;;;;;11.23;6.32;;;6.50;96.70;;;;;;4975789;28;20298;-72
2023/02/01 03:28:19;;;;;;;15.35;6.72;;;6.40;96.70;;;;;;4984910;28;20559;-72
2023/02/01 03:30:49;;;;;;;12.15;6.63;;;6.30;96.70;;;;;;4985406;28;20054;-78
2023/02/01 03:33:21;;;;;;;11.90;7.00;;;6.30;96.70;;;;;;4985721;28;20120;-78
2023/02/01 03:35:58;;;;;;;11.27;6.88;;;6.20;96.70;;;;;;4985073;28;20046;-78
2023/02/01 03:38:32;;;;;;;11.48;5.82;;;6.20;96.70;;;;;;4985254;28;20061;-77
2023/02/01 03:41:07;;;;;;;9.40;6.35;;;6.20;96.70;;;;;;4985016;28;20081;-78
2023/02/01 03:43:44;;;;;;;12.23;6.50;;;6.30;96.70;;;;;;4970182;28;20397;-78
2023/02/01 03:46:20;;;;;;;10.23;6.47;;;6.30;96.70;;;;;;4977924;28;20531;-77
2023/02/01 03:48:51;;;;;;;8.70;5.93;;;6.30;96.70;;;;;;4985636;28;20583;-78
2023/02/01 03:51:21;;;;;;;11.55;6.80;;;6.30;96.70;;;;;;4985816;28;20058;-78
2023/02/01 03:53:53;;;;;;;12.02;6.68;;;6.20;96.70;;;;;;4968869;28;20082;-78
2023/02/01 03:56:23;;;;;;;11.48;6.93;;;6.20;96.70;;;;;;4977148;28;20053;-77
2023/02/01 03:59:00;;;;;;;12.93;6.70;;;6.20;96.70;;;;;;4983620;28;20053;-78
2023/02/01 04:01:33;;;;;;;8.77;6.07;;;6.30;96.70;;;;;;4984210;28;20404;-78
2023/02/01 04:04:02;;;;;;;11.48;6.85;;;6.20;96.70;;;;;;4985713;28;20574;-78
2023/02/01 04:06:30;;;;;;;12.57;6.38;;;6.20;96.70;;;;;;4983367;28;20082;-77
2023/02/01 04:09:03;;;;;;;8.95;6.53;;;6.30;96.70;;;;;;4984979;28;20053;-78
2023/02/01 04:11:31;;;;;;;12.65;6.63;;;6.10;96.70;;;;;;4981795;28;20081;-76
2023/02/01 04:14:04;;;;;;;8.68;6.00;;;6.20;96.70;;;;;;4986616;28;20109;-72
2023/02/01 04:16:33;;;;;;;8.70;5.80;;;6.40;96.70;;;;;;4984353;28;20042;-73
2023/02/01 04:19:02;;;;;;;9.13;5.97;;;6.40;96.70;;;;;;4984616;28;20046;-73
2023/02/01 04:21:30;;;;;;;10.55;5.82;;;6.40;96.70;;;;;;4983799;28;20427;-73
2023/02/01 04:23:58;;;;;;;12.82;5.72;;;6.40;96.70;;;;;;4982923;28;20047;-73
2023/02/01 04:26:27;;;;;;;9.40;5.93;;;6.40;96.70;;;;;;4980921;28;20056;-73
2023/02/01 04:28:55;;;;;;;10.27;6.18;;;6.40;96.70;;;;;;4983823;28;20585;-73
2023/02/01 04:31:27;;;;;;;11.02;6.05;;;6.20;96.70;;;;;;4981451;28;20505;-73
2023/02/01 04:33:57;;;;;;;11.82;5.65;;;6.00;96.70;;;;;;4981798;28;20048;-72
2023/02/01 04:36:25;;;;;;;11.32;5.93;;;6.00;96.70;;;;;;4985623;28;20126;-73
2023/02/01 04:38:53;;;;;;;9.60;5.97;;;6.10;96.70;;;;;;4983843;28;20046;-73
2023/02/01 04:41:22;;;;;;;10.10;6.05;;;6.30;96.70;;;;;;4984077;28;20050;-73
2023/02/01 04:43:55;;;;;;;10.73;6.68;;;6.30;96.70;;;;;;4983378;28;20500;-78
2023/02/01 04:46:23;;;;;;;8.02;5.72;;;6.30;96.70;;;;;;4984763;28;20046;-76
2023/02/01 04:48:51;;;;;;;11.32;6.18;;;6.20;96.70;;;;;;4984472;28;20385;-77
2023/02/01 04:51:19;;;;;;;8.32;6.07;;;6.20;96.70;;;;;;4985237;28;20054;-78
2023/02/01 04:53:47;;;;;;;9.25;6.00;;;6.20;96.70;;;;;;4983669;28;20046;-78
2023/02/01 04:56:15;;;;;;;8.18;5.50;;;6.10;96.70;;;;;;4982297;28;20057;-73
2023/02/01 04:58:43;;;;;;;9.98;5.68;;;6.20;96.70;;;;;;4980048;28;20122;-73
2023/02/01 05:01:13;;;;;;;9.85;6.13;;;6.10;96.70;;;;;;4962635;28;20070;-73
2023/02/01 05:03:41;;;;;;;10.63;6.28;;;6.20;96.70;;;;;;4982215;28;20039;-73
2023/02/01 05:06:09;;;;;;;19.08;7.40;;;6.20;96.70;;;;;;4983381;28;20062;-77
2023/02/01 05:08:37;;;;;;;11.82;7.47;;;6.20;96.70;;;;;;4983684;28;20050;-79
2023/02/01 05:11:05;;;;;;;11.25;6.53;;;6.30;96.70;;;;;;4978036;28;20693;-78
2023/02/01 05:13:48;;;;;;;13.05;7.07;;;6.30;96.70;;;;;;4983171;28;20055;-77
2023/02/01 05:16:19;;;;;;;10.70;6.80;;;6.10;96.70;;;;;;4961879;28;20142;-78
2023/02/01 05:18:47;;;;;;;11.80;7.38;;;6.00;96.70;;;;;;4983934;28;20683;-78
2023/02/01 05:21:15;;;;;;;16.60;7.45;;;6.00;96.70;;;;;;4984161;28;20054;-77
2023/02/01 05:26:30;;;;;;;13.10;7.82;;;6.00;96.70;;;;;;4984498;28;20050;-73
2023/02/01 05:28:58;;;;;;;11.40;7.45;;;6.00;96.70;;;;;;4983352;28;20077;-74
2023/02/01 05:31:28;;;;;;;12.00;7.55;;;6.00;96.70;;;;;;4982765;28;20070;-72
2023/02/01 05:33:56;;;;;;;11.90;7.53;;;6.10;96.70;;;;;;4984172;28;20073;-73
2023/02/01 05:36:24;;;;;;;13.45;7.38;;;6.10;96.70;;;;;;4984604;28;20408;-77
2023/02/01 05:38:53;;;;;;;12.20;6.88;;;6.10;96.70;;;;;;4983282;28;20058;-78
2023/02/01 05:41:21;;;;;;;11.88;6.60;;;6.10;96.70;;;;;;4982870;28;20043;-77
2023/02/01 05:43:49;;;;;;;12.00;7.10;;;6.30;96.70;;;;;;4982325;28;20504;-78
2023/02/01 05:46:17;;;;;;;12.73;7.63;;;6.40;96.70;;;;;;4982593;28;20738;-78
2023/02/01 05:48:46;;;;;;;12.50;6.93;;;6.40;96.70;;;;;;4984426;28;20046;-78
2023/02/01 05:51:15;;;;;;;14.48;7.05;;;6.40;96.70;;;;;;4983334;28;20076;-77
2023/02/01 05:53:42;;;;;;;9.15;6.07;;;6.40;96.70;;;;;;4983063;28;20532;-78
2023/02/01 05:56:10;;;;;;;11.05;6.40;;;6.40;96.70;;;;;;4980683;28;20053;-78
2023/02/01 05:58:38;;;;;;;10.50;5.70;;;6.40;96.70;;;;;;4976633;28;20500;-78
2023/02/01 06:01:06;;;;;;;9.40;5.07;;;6.30;96.70;;;;;;4982587;28;20053;-78
2023/02/01 06:03:35;;;;;;;11.32;6.13;;;6.30;96.70;;;;;;4974378;28;20046;-76
2023/02/01 06:06:05;;;;;;;8.50;5.07;;;6.30;96.70;;;;;;4979012;28;20528;-72
2023/02/01 06:08:33;;;;;;;9.18;5.35;;;6.30;96.70;;;;;;4982731;28;20571;-73
2023/02/01 06:11:03;;;;;;;9.00;5.30;;;6.30;96.70;;;;;;4981357;28;20460;-72
2023/02/01 06:13:32;;;;;;;9.60;5.40;;;6.30;96.70;;;;;;4978376;28;20130;-73
2023/02/01 06:16:02;;;;;;;9.68;5.63;;;6.40;96.70;;;;;;4974585;28;20054;-73
2023/02/01 06:18:30;;;;;;;14.25;6.10;;;6.40;96.70;;;;;;4975629;28;20134;-73
2023/02/01 06:21:02;;;;;;;10.73;6.43;;;6.40;96.70;;;;;;4979130;28;20527;-72
2023/02/01 06:23:32;;;;;;;11.20;5.82;;;6.20;96.70;;;;;;4980997;28;20050;-73
2023/02/01 06:26:01;;;;;;;17.30;7.47;;;6.20;96.70;;;;;;4979863;28;20069;-72
2023/02/01 06:28:30;;;;;;;12.32;6.47;;;6.20;96.70;;;;;;4979879;28;20567;-73
2023/02/01 06:30:58;;;;;;;8.00;5.15;;;6.20;96.70;;;;;;4978325;28;20049;-73
2023/02/01 06:33:26;;;;;;;11.95;5.72;;;6.30;96.70;;;;;;4970337;28;20648;-72
2023/02/01 06:35:58;;;;;;;14.10;6.35;;;6.20;96.70;;;;;;4982645;28;20046;-73
2023/02/01 06:38:26;;;;;;;13.98;7.90;;;6.10;96.70;;;;;;4975748;28;20046;-74
2023/02/01 06:40:57;;;;;;;15.18;7.53;;;6.10;96.70;;;;;;4981693;28;20042;-73
2023/02/01 06:43:27;;;;;;;14.57;8.27;;;6.10;96.70;;;;;;4983452;28;20073;-72
2023/02/01 06:46:00;;;;;;;12.23;7.53;;;6.10;96.70;;;;;;4981670;28;20120;-73
2023/02/01 06:48:28;;;;;;;12.13;6.97;;;6.10;96.70;;;;;;4980918;28;20054;-75
2023/02/01 06:50:56;;;;;;;16.65;7.90;;;6.10;96.70;;;;;;4973760;28;20066;-73
2023/02/01 06:53:24;;;;;;;14.85;7.95;;;6.20;96.70;;;;;;4983221;28;20058;-73
2023/02/01 06:55:53;;;;;;;14.45;8.30;;;6.30;96.70;;;;;;4975577;28;20043;-73
2023/02/01 06:58:22;;;;;;;16.52;7.72;;;6.30;96.70;;;;;;4979322;28;20500;-73
2023/02/01 07:00:50;;;;;;;16.15;7.97;;;6.30;96.70;;;;;;4976560;28;20112;-73
2023/02/01 07:03:18;;;;;;;13.65;7.50;;;6.40;96.70;;;;;;4982816;28;20117;-73
2023/02/01 07:05:47;;;;;;;14.57;7.47;;;6.40;96.70;;;;;;4980317;28;20050;-74
2023/02/01 07:08:15;;;;;;;11.63;6.80;;;6.30;96.70;;;;;;4980032;28;20466;-74
2023/02/01 07:10:43;;;;;;;12.77;6.72;;;6.20;96.70;;;;;;4976769;28;20054;-75
2023/02/01 07:13:11;;;;;;;12.27;6.70;;;6.10;96.70;;;;;;4974761;28;20075;-74
2023/02/01 07:15:40;;;;;;;14.63;7.07;;;6.10;96.70;;;;;;4964079;28;20046;-74
2023/02/01 07:18:08;;;;;;;12.98;7.32;;;6.10;96.70;;;;;;4966887;28;20055;-72
2023/02/01 07:20:36;;;;;;;12.77;6.88;;;6.00;96.70;;;;;;4981755;28;20133;-73
2023/02/01 07:23:04;;;;;;;9.68;6.15;;;5.90;96.70;;;;;;4981260;28;20046;-73
2023/02/01 07:25:34;;;;;;;11.40;6.57;;;5.90;96.70;;;;;;4965563;28;20042;-73
2023/02/01 07:28:02;;;;;;;10.27;6.47;;;5.90;96.70;;;;;;4982150;28;20087;-73
2023/02/01 07:30:29;;;;;;;12.85;6.95;;;6.00;96.70;;;;;;4982049;28;20097;-75
2023/02/01 07:33:00;;;;;;;10.18;6.25;;;6.10;96.70;;;;;;4981734;28;20069;-75
2023/02/01 07:35:29;;;;;;;10.05;6.40;;;6.10;96.70;;;;;;4965880;28;20051;-73
2023/02/01 07:37:58;;;;;;;12.15;6.82;;;6.10;96.70;;;;;;4981794;28;20104;-73
2023/02/01 07:40:28;;;;;;;15.43;7.22;;;6.20;96.70;;;;;;4984932;28;20515;-74
2023/02/01 07:42:56;;;;;;;10.77;6.82;;;6.20;96.70;;;;;;4984498;28;20058;-74
2023/02/01 07:45:24;;;;;;;13.70;7.72;;;6.20;96.70;;;;;;4984836;28;20177;-74
2023/02/01 07:47:53;;;;;;;10.80;6.50;;;6.20;96.70;;;;;;4985435;28;20538;-74
2023/02/01 07:50:22;;;;;;;14.73;6.70;;;6.20;96.70;;;;;;4985150;28;20102;-75
2023/02/01 07:52:50;;;;;;;13.05;8.75;;;6.20;96.70;;;;;;4998790;28;20072;-74
2023/02/01 07:55:18;;;;;;;11.50;7.45;;;6.30;96.70;;;;;;4985551;28;20066;-72
2023/02/01 07:57:47;;;;;;;10.43;7.07;;;6.30;96.70;;;;;;4984730;28;20058;-73
2023/02/01 08:03:04;;;;;;;22.23;8.02;;;6.50;96.70;;;;;;4984809;28;20422;-74
2023/02/01 08:05:34;;;;;;;10.80;7.57;;;6.40;96.70;;;;;;4985537;28;20452;-73
2023/02/01 08:08:02;;;;;;;12.02;7.40;;;6.50;96.70;;;;;;4978287;28;20035;-74
2023/02/01 08:10:29;;;;;;;14.50;7.85;;;6.40;96.70;;;;;;4984599;28;20038;-73
2023/02/01 08:12:59;;;;;;;12.55;6.95;;;6.40;96.70;;;;;;4986489;28;20050;-72
2023/02/01 08:15:28;;;;;;;13.48;7.43;;;6.50;96.70;;;;;;4986036;28;20476;-73
2023/02/01 08:17:55;;;;;;;14.13;8.50;;;6.60;96.70;;;;;;4984672;28;20050;-73
2023/02/01 08:20:23;;;;;;;13.85;8.68;;;6.50;96.70;;;;;;4985460;28;20584;-74
2023/02/01 08:22:54;;;;;;;12.20;8.52;;;6.60;96.70;;;;;;4984411;28;20050;-74
2023/02/01 08:25:23;;;;;;;12.57;8.40;;;6.60;96.70;;;;;;4985826;28;20919;-72
2023/02/01 08:27:51;;;;;;;17.77;9.35;;;6.60;96.70;;;;;;4986117;28;20617;-72
2023/02/01 08:30:19;;;;;;;16.60;8.93;;;6.60;96.70;;;;;;4968030;28;20066;-74
2023/02/01 08:32:47;;;;;;;13.93;9.13;;;6.60;96.70;;;;;;4983535;28;20405;-73
2023/02/01 08:35:15;;;;;;;14.75;8.88;;;6.60;96.70;;;;;;4978108;28;20038;-72
2023/02/01 08:37:43;;;;;;;14.63;9.05;;;6.70;96.70;;;;;;4984708;28;20054;-74
2023/02/01 08:40:13;;;;;;;13.05;8.95;;;6.70;96.70;;;;;;4984021;28;20170;-73
2023/02/01 08:42:50;;;;;;;18.73;11.18;;;6.80;96.70;;;;;;4984660;28;20050;-74
2023/02/01 08:45:19;;;;;;;14.38;9.43;;;6.80;96.70;;;;;;4984982;28;20503;-73
2023/02/01 08:47:47;;;;;;;16.15;10.50;;;6.90;96.70;;;;;;4968000;28;20055;-73
2023/02/01 08:50:16;;;;;;;15.43;10.05;;;7.00;96.70;;;;;;4985540;28;20046;-74
2023/02/01 08:52:44;;;;;;;17.08;9.95;;;7.00;96.70;;;;;;4967457;28;20074;-73
2023/02/01 08:55:14;;;;;;;18.80;11.07;;;7.10;96.70;;;;;;4985157;28;20125;-73
2023/02/01 08:57:42;;;;;;;19.92;11.52;;;7.10;96.70;;;;;;4967024;28;20050;-72
2023/02/01 09:00:15;;;;;;;18.60;10.75;;;7.10;96.70;;;;;;4980175;28;20126;-74
2023/02/01 09:02:43;;;;;;;16.63;11.00;;;7.10;96.70;;;;;;4983356;28;20096;-73
2023/02/01 09:05:13;;;;;;;17.70;10.18;;;7.10;96.70;;;;;;4985468;28;20576;-78
2023/02/01 09:07:42;;;;;;;13.95;9.57;;;7.10;96.70;;;;;;4984273;28;20065;-78
2023/02/01 09:10:10;;;;;;;16.67;9.75;;;7.10;96.70;;;;;;4984232;28;20042;-79
2023/02/01 09:12:40;;;;;;;15.52;10.00;;;7.20;96.70;;;;;;4984584;28;20050;-79
2023/02/01 09:15:08;;;;;;;15.18;10.30;;;7.20;96.70;;;;;;4983117;28;20046;-78
2023/02/01 09:17:37;;;;;;;15.90;10.10;;;7.30;96.70;;;;;;4983906;28;20046;-80
2023/02/01 09:20:05;;;;;;;18.05;11.57;;;7.30;96.70;;;;;;4985595;28;20054;-81
2023/02/01 09:22:33;;;;;;;20.60;11.30;;;7.30;96.70;;;;;;4986491;28;20046;-80
2023/02/01 09:25:01;;;;;;;17.10;10.27;;;7.30;96.70;;;;;;4984213;28;20077;-81
2023/02/01 09:27:29;;;;;;;19.83;11.35;;;7.30;96.70;;;;;;4985980;28;20047;-79
2023/02/01 09:29:58;;;;;;;18.98;11.63;;;7.30;96.70;;;;;;4983845;28;20161;-79
2023/02/01 09:32:26;;;;;;;20.52;11.77;;;7.30;96.70;;;;;;4985724;28;20136;-79
2023/02/01 09:34:54;;;;;;;18.73;10.48;;;7.30;96.70;;;;;;4984096;28;20046;-79
2023/02/01 09:37:22;;;;;;;20.05;10.38;;;7.30;96.70;;;;;;4984387;28;20068;-79
2023/02/01 09:39:50;;;;;;;15.55;10.52;;;7.40;96.70;;;;;;4984827;28;20047;-79
2023/02/01 09:42:40;;;;;;;17.40;11.05;;;7.40;96.70;;;;;;4960135;28;20069;-77
2023/02/01 09:45:19;;;;;;;26.95;12.02;;;7.50;96.70;;;;;;4984488;28;20042;-78
2023/02/01 09:47:51;;;;;;;19.00;11.27;;;7.70;96.70;;;;;;4982635;28;20137;-79
2023/02/01 09:50:22;;;;;;;16.45;10.77;;;7.80;96.70;;;;;;4984985;28;20167;-78
2023/02/01 09:52:57;;;;;;;18.92;11.13;;;7.90;96.70;;;;;;4979194;28;20075;-78
2023/02/01 09:55:32;;;;;;;16.13;10.45;;;8.00;96.70;;;;;;4981396;28;20042;-78
2023/02/01 09:58:03;;;;;;;20.63;11.70;;;8.10;96.70;;;;;;4982381;28;20057;-79
2023/02/01 10:00:35;;;;;;;14.13;9.25;;;8.10;96.70;;;;;;4982539;28;20061;-79
2023/02/01 10:03:03;;;;;;;14.88;7.65;;;8.10;96.70;;;;;;4984129;28;20043;-77
2023/02/01 10:05:57;;;;;;;13.13;7.57;;;8.10;96.70;;;;;;4963938;28;20161;-72
2023/02/01 10:08:38;;;;;;;15.23;8.68;;;8.20;96.70;;;;;;4974695;28;20054;-73
2023/02/01 10:11:19;;;;;;;13.60;8.52;;;8.20;96.70;;;;;;4982019;28;20140;-73
2023/02/01 10:13:59;;;;;;;17.77;9.93;;;8.30;96.70;;;;;;4982374;28;20061;-72
2023/02/01 10:16:39;;;;;;;12.32;8.93;;;8.40;96.70;;;;;;4977519;28;20121;-73
2023/02/01 10:19:22;;;;;;;14.95;8.48;;;8.50;96.70;;;;;;4983746;28;20052;-73
2023/02/01 10:21:54;;;;;;;12.60;8.32;;;8.50;96.70;;;;;;4978869;28;20465;-73
2023/02/01 10:24:35;;;;;;;12.55;8.68;;;8.50;96.70;;;;;;4983503;28;20054;-73
2023/02/01 10:27:17;;;;;;;13.13;8.23;;;8.50;96.70;;;;;;4983254;28;20038;-73
2023/02/01 10:29:50;;;;;;;15.27;8.90;;;8.60;96.70;;;;;;4981806;28;20046;-74
2023/02/01 10:32:22;;;;;;;16.35;9.02;;;8.70;96.70;;;;;;4984157;28;20050;-73
2023/02/01 10:34:56;;;;;;;17.85;9.27;;;8.80;96.70;;;;;;4981867;28;20724;-73
2023/02/01 10:37:28;;;;;;;15.73;8.65;;;9.00;96.70;;;;;;4982104;28;20089;-73
2023/02/01 10:39:58;;;;;;;15.77;8.80;;;9.00;96.70;;;;;;4982250;28;20038;-73
2023/02/01 10:42:29;;;;;;;14.45;9.30;;;9.10;96.70;;;;;;4983779;28;20073;-73
2023/02/01 10:45:00;;;;;;;14.43;9.10;;;9.10;96.70;;;;;;4981710;28;20441;-72
2023/02/01 10:47:30;;;;;;;13.25;8.10;;;9.10;96.70;;;;;;4982023;28;20129;-73
2023/02/01 10:50:06;;;;;;;16.23;8.32;;;9.10;96.70;;;;;;4965573;28;20042;-73
2023/02/01 10:52:40;;;;;;;14.82;8.45;;;9.10;96.70;;;;;;4983838;28;20047;-79
2023/02/01 10:55:33;;;;;;;13.43;8.93;;;9.00;96.70;;;;;;4983110;28;20090;-79
2023/02/01 10:58:03;;;;;;;12.02;8.60;;;9.00;96.70;;;;;;4982037;28;20046;-80
2023/02/01 11:00:43;;;;;;;13.13;8.32;;;9.00;96.70;;;;;;4974530;28;20408;-79
2023/02/01 11:03:33;;;;;;;14.95;9.57;;;9.00;96.70;;;;;;4983166;28;20050;-78
2023/02/01 11:06:03;;;;;;;13.95;8.77;;;9.00;96.70;;;;;;4982164;28;20138;-79
2023/02/01 11:08:32;;;;;;;17.02;10.20;;;9.00;96.70;;;;;;4983963;28;20505;-78
2023/02/01 11:11:02;;;;;;;17.42;9.80;;;9.10;96.70;;;;;;4981495;28;20101;-77
2023/02/01 11:13:35;;;;;;;16.27;9.63;;;9.20;96.70;;;;;;4983209;28;20046;-77
2023/02/01 11:16:06;;;;;;;15.98;9.57;;;9.40;96.70;;;;;;4985762;28;20077;-78
2023/02/01 11:18:37;;;;;;;12.60;9.23;;;9.60;96.70;;;;;;4987257;28;20120;-78
2023/02/01 11:21:08;;;;;;;18.38;9.50;;;9.70;96.70;;;;;;4987944;28;20108;-77
2023/02/01 11:23:42;;;;;;;21.23;11.38;;;9.70;96.70;;;;;;4985831;28;20599;-79
2023/02/01 11:26:13;;;;;;;21.50;11.95;;;9.90;96.70;;;;;;4985572;28;20069;-79
2023/02/01 11:28:54;;;;;;;17.80;10.75;;;10.20;96.70;;;;;;4986641;28;20042;-80
2023/02/01 11:31:24;;;;;;;15.75;11.02;;;10.50;96.70;;;;;;4986022;28;20042;-79
2023/02/01 11:33:58;;;;;;;15.98;10.15;;;10.60;96.70;;;;;;4985934;28;20222;-78
2023/02/01 11:36:29;;;;;;;16.30;10.18;;;10.50;96.70;;;;;;4986171;28;20046;-78
2023/02/01 11:39:15;;;;;;;15.57;9.07;;;10.60;96.70;;;;;;4986703;28;20061;-79
2023/02/01 11:41:55;;;;;;;19.67;9.30;;;10.50;96.70;;;;;;4980756;28;20053;-80
2023/02/01 11:44:31;;;;;;;16.92;8.18;;;10.50;96.70;;;;;;4987225;28;20070;-79
2023/02/01 11:47:25;;;;;;;14.82;8.85;;;10.70;96.70;;;;;;4977286;28;20133;-79
2023/02/01 11:49:56;;;;;;;14.85;8.65;;;10.90;96.70;;;;;;4984245;28;20481;-78
2023/02/01 11:52:42;;;;;;;19.08;9.90;;;11.10;96.70;;;;;;4985160;28;20065;-79
2023/02/01 11:55:49;;;;;;;15.50;10.13;;;11.50;96.70;;;;;;4980620;28;20137;-79
2023/02/01 11:58:35;;;;;;;15.20;9.23;;;11.90;96.70;;;;;;4975080;28;20073;-80
2023/02/01 12:01:31;;;;;;;19.02;10.45;;;12.10;96.70;;;;;;4980223;28;20043;-77
2023/02/01 12:04:46;;;;;;;14.57;9.00;;;12.00;96.70;;;;;;4981372;28;20673;-78
2023/02/01 12:07:20;;;;;;;16.77;9.85;;;11.90;96.70;;;;;;4951162;28;20057;-78
2023/02/01 12:10:06;;;;;;;18.02;10.23;;;12.00;96.70;;;;;;4986607;28;20113;-80
2023/02/01 12:12:44;;;;;;;16.75;11.05;;;12.10;96.70;;;;;;4985841;28;20038;-79
2023/02/01 12:15:28;;;;;;;14.13;9.07;;;12.20;96.70;;;;;;4984786;28;20050;-77
2023/02/01 12:18:33;;;;;;;17.65;9.57;;;12.40;96.70;;;;;;4984979;28;20073;-78
2023/02/01 12:21:10;;;;;;;13.80;9.07;;;12.30;96.70;;;;;;4949434;28;20058;-77
2023/02/01 12:23:57;;;;;;;18.98;9.10;;;12.30;96.70;;;;;;4982520;28;20101;-79
2023/02/01 12:26:44;;;;;;;16.13;8.75;;;12.10;96.70;;;;;;4974478;28;20066;-77
2023/02/01 12:29:42;;;;;;;17.80;10.25;;;12.10;96.70;;;;;;4983974;28;20161;-77
2023/02/01 12:32:22;;;;;;;15.73;8.77;;;12.40;96.70;;;;;;4951707;28;20109;-77
2023/02/01 12:35:18;;;;;;;13.95;9.35;;;12.60;96.70;;;;;;4984091;28;20049;-77
2023/02/01 12:38:13;;;;;;;20.08;11.00;;;12.90;96.70;;;;;;4982900;28;20535;-77
2023/02/01 12:40:58;;;;;;;17.08;9.70;;;13.10;96.70;;;;;;4984179;28;20046;-76
2023/02/01 12:43:38;;;;;;;19.45;13.27;;;12.80;96.70;;;;;;4985621;28;20061;-78
2023/02/01 12:46:12;;;;;;;19.05;11.68;;;12.60;96.70;;;;;;4977163;28;20080;-77
2023/02/01 12:48:49;;;;;;;16.13;9.73;;;12.40;96.70;;;;;;4986452;28;20046;-76
2023/02/01 12:51:18;;;;;;;;;;;12.40;96.70;;;;;;4984038;28;20108;-76
2023/02/01 12:53:51;;;;;;;16.67;9.48;;;12.30;96.70;;;;;;4967466;28;19926;-76
2023/02/01 12:56:25;;;;;;;14.43;10.07;;;12.20;96.70;;;;;;4980587;28;20053;-75
2023/02/01 12:58:55;;;;;;;18.85;10.52;;;12.10;96.70;;;;;;4967888;28;20047;-76
2023/02/01 13:01:30;;;;;;;20.33;12.15;;;12.00;96.70;;;;;;4984605;28;20038;-76
2023/02/01 13:04:07;;;;;;;21.48;14.30;;;11.80;96.70;;;;;;4983413;28;20190;-84
2023/02/01 13:06:39;;;;;;;33.80;21.52;;;11.80;96.70;;;;;;4985034;28;20078;-76
2023/02/01 13:09:18;;;;;;;51.42;28.30;;;11.80;96.70;;;;;;4983330;28;20050;-76
2023/02/01 13:11:50;;;;;;;50.30;28.15;;;11.80;96.70;;;;;;4998670;28;20750;-76
2023/02/01 13:14:28;;;;;;;50.55;29.00;;;11.80;96.70;;;;;;4982411;28;20061;-77
2023/02/01 13:17:02;;;;;;;28.45;17.02;;;11.80;96.70;;;;;;4983797;28;20150;-79
2023/02/01 13:19:46;;;;;;;31.00;16.85;;;11.80;96.70;;;;;;4985258;28;20057;-81
2023/02/01 13:22:22;;;;;;;35.90;20.02;;;11.80;96.70;;;;;;4980389;28;20413;-83
2023/02/01 13:24:54;;;;;;;32.28;18.77;;;11.90;96.70;;;;;;4988728;28;20511;-81
2023/02/01 13:27:27;;;;;;;23.80;14.88;;;12.00;96.70;;;;;;4983986;28;20061;-77
2023/02/01 13:29:58;;;;;;;25.00;16.48;;;12.00;96.70;;;;;;4982711;28;20057;-78
2023/02/01 13:32:51;;;;;;;24.65;16.42;;;12.00;96.70;;;;;;4975263;28;20046;-78
2023/02/01 13:36:22;;;;;;;20.38;13.10;;;12.10;96.70;;;;;;4984762;28;20074;-78
2023/02/01 13:39:24;;;;;;;19.23;11.77;;;12.30;96.70;;;;;;4956499;28;20050;-78